createdAt,value
2018-01-13T00:01:04.692Z,102972.16
2018-01-13T00:03:32.380Z,102973.22
2018-01-13T00:06:00.128Z,102964.25
2018-01-13T00:08:27.872Z,102973.01
2018-01-13T00:10:55.575Z,102968.69
2018-01-13T00:13:23.312Z,102967.53
2018-01-13T00:15:51.010Z,102962.77
2018-01-13T00:18:18.811Z,102964.77
2018-01-13T00:20:46.499Z,102963.52
2018-01-13T00:23:14.230Z,102964.03
2018-01-13T00:25:41.894Z,102962.55
2018-01-13T00:28:09.646Z,102954.44
2018-01-13T00:30:37.338Z,102953.16
2018-01-13T00:33:05.025Z,102957.70
2018-01-13T00:35:32.727Z,102953.25
2018-01-13T00:38:00.482Z,102958.31
2018-01-13T00:40:28.187Z,102953.67
2018-01-13T00:42:55.921Z,102954.31
2018-01-13T00:45:23.619Z,102953.48
2018-01-13T00:47:51.709Z,102958.98
2018-01-13T00:50:19.445Z,102946.31
2018-01-13T00:52:47.187Z,102956.87
2018-01-13T00:55:14.872Z,102952.53
2018-01-13T00:57:42.615Z,102950.84
2018-01-13T01:00:10.312Z,102954.33
2018-01-13T01:02:38.052Z,102957.72
2018-01-13T01:05:05.746Z,102969.09
2018-01-13T01:07:33.481Z,102965.83
2018-01-13T01:10:01.177Z,102958.24
2018-01-13T01:12:28.912Z,102966.91
2018-01-13T01:14:56.629Z,102966.78
2018-01-13T01:17:24.424Z,102963.92
2018-01-13T01:19:52.115Z,102964.68
2018-01-13T01:22:19.852Z,102968.91
2018-01-13T01:24:47.553Z,102978.00
2018-01-13T01:27:15.309Z,102976.73
2018-01-13T01:29:43.019Z,102982.22
2018-01-13T01:32:10.769Z,102982.55
2018-01-13T01:34:38.454Z,102988.77
2018-01-13T01:37:06.188Z,102987.92
2018-01-13T01:39:33.880Z,102988.34
2018-01-13T01:42:01.569Z,102978.09
2018-01-13T01:44:29.264Z,102989.81
2018-01-13T01:46:57.005Z,102982.64
2018-01-13T01:49:24.688Z,102991.31
2018-01-13T01:51:52.385Z,102991.73
2018-01-13T01:54:20.130Z,102990.03
2018-01-13T01:56:47.834Z,103000.59
2018-01-13T01:59:15.583Z,102996.16
2018-01-13T02:01:43.268Z,103000.92
2018-01-13T02:04:11.015Z,102996.28
2018-01-13T02:06:38.719Z,102998.72
2018-01-13T02:09:06.462Z,102998.91
2018-01-13T02:11:34.152Z,102993.61
2018-01-13T02:14:01.881Z,102988.33
2018-01-13T02:16:29.579Z,102993.70
2018-01-13T02:18:57.368Z,102990.65
2018-01-13T02:21:25.065Z,102990.67
2018-01-13T02:23:52.815Z,102986.02
2018-01-13T02:26:20.507Z,102985.06
2018-01-13T02:28:48.243Z,102993.39
2018-01-13T02:31:15.924Z,102993.37
2018-01-13T02:33:43.654Z,102982.91
2018-01-13T02:36:11.404Z,102990.02
2018-01-13T02:38:39.160Z,102988.40
2018-01-13T02:41:06.866Z,102990.94
2018-01-13T02:43:34.620Z,102991.67
2018-01-13T02:46:02.316Z,102988.50
2018-01-13T02:48:30.068Z,102987.44
2018-01-13T02:50:57.763Z,102981.42
2018-01-13T02:53:25.531Z,102989.66
2018-01-13T02:55:53.241Z,102981.63
2018-01-13T02:58:20.995Z,102982.98
2018-01-13T03:00:48.683Z,102980.36
2018-01-13T03:03:16.442Z,102981.30
2018-01-13T03:05:44.173Z,102976.55
2018-01-13T03:08:11.916Z,102973.56
2018-01-13T03:10:39.609Z,102978.75
2018-01-13T03:13:07.287Z,102975.78
2018-01-13T03:15:34.984Z,102968.07
2018-01-13T03:18:02.661Z,102971.89
2018-01-13T03:20:30.351Z,102970.20
2018-01-13T03:22:58.104Z,102975.91
2018-01-13T03:25:25.811Z,102971.58
2018-01-13T03:27:53.488Z,102972.09
2018-01-13T03:30:21.193Z,102974.41
2018-01-13T03:32:48.814Z,102967.44
2018-01-13T03:35:16.556Z,102972.50
2018-01-13T03:37:44.235Z,102971.25
2018-01-13T03:40:11.959Z,102969.85
2018-01-13T03:42:39.647Z,102963.59
2018-01-13T03:45:07.390Z,102960.86
2018-01-13T03:47:35.104Z,102957.38
2018-01-13T03:50:02.837Z,102963.30
2018-01-13T03:52:30.519Z,102961.41
2018-01-13T03:54:58.266Z,102964.67
2018-01-13T03:57:25.962Z,102969.40
2018-01-13T03:59:53.698Z,102961.50
2018-01-13T04:02:21.397Z,102964.77
2018-01-13T04:04:49.066Z,102963.81
2018-01-13T04:07:16.757Z,102959.27
2018-01-13T04:09:44.498Z,102960.77
2018-01-13T04:12:12.205Z,102958.33
2018-01-13T04:14:39.952Z,102954.73
2018-01-13T04:17:07.700Z,102946.62
2018-01-13T04:19:35.459Z,102948.69
2018-01-13T04:22:03.088Z,102953.45
2018-01-13T04:24:30.768Z,102956.53
2018-01-13T04:26:58.454Z,102950.19
2018-01-13T04:29:26.197Z,102949.34
2018-01-13T04:31:53.879Z,102957.78
2018-01-13T04:34:21.627Z,102958.63
2018-01-13T04:36:49.321Z,102963.09
2018-01-13T04:39:17.063Z,102966.34
2018-01-13T04:41:44.743Z,102969.61
2018-01-13T04:44:12.472Z,102971.20
2018-01-13T04:46:40.163Z,102970.34
2018-01-13T04:49:07.894Z,102974.98
2018-01-13T04:51:35.582Z,102977.64
2018-01-13T04:54:03.315Z,102971.08
2018-01-13T04:56:31.001Z,102978.89
2018-01-13T04:58:58.744Z,102970.75
2018-01-13T05:01:26.379Z,102973.48
2018-01-13T05:03:54.065Z,102976.45
2018-01-13T05:06:21.785Z,102981.17
2018-01-13T05:08:49.515Z,102972.09
2018-01-13T05:11:17.196Z,102976.63
2018-01-13T05:13:44.879Z,102976.63
2018-01-13T05:16:12.644Z,102985.63
2018-01-13T05:18:40.386Z,102989.11
2018-01-13T05:21:08.116Z,102990.48
2018-01-13T05:23:35.804Z,102989.63
2018-01-13T05:26:03.597Z,102992.55
2018-01-13T05:28:31.292Z,102988.86
2018-01-13T05:30:59.022Z,102991.73
2018-01-13T05:33:26.716Z,102993.83
2018-01-13T05:35:54.452Z,102996.15
2018-01-13T05:38:22.143Z,102996.58
2018-01-13T05:40:49.916Z,102992.03
2018-01-13T05:43:17.562Z,102994.69
2018-01-13T05:45:45.312Z,102992.67
2018-01-13T05:48:13.001Z,102992.03
2018-01-13T05:50:40.731Z,102990.88
2018-01-13T05:53:08.424Z,102988.56
2018-01-13T05:55:36.154Z,102989.41
2018-01-13T05:58:03.846Z,102986.55
2018-01-13T06:00:31.589Z,102987.28
2018-01-13T06:02:59.227Z,102987.16
2018-01-13T06:05:26.910Z,102983.98
2018-01-13T06:07:54.618Z,102987.16
2018-01-13T06:10:22.359Z,102987.67
2018-01-13T06:12:50.055Z,102986.30
2018-01-13T06:15:17.799Z,102989.59
2018-01-13T06:17:45.540Z,102988.10
2018-01-13T06:20:13.216Z,102985.57
2018-01-13T06:22:40.912Z,102975.97
2018-01-13T06:25:08.661Z,102985.57
2018-01-13T06:27:36.364Z,102985.87
2018-01-13T06:30:04.107Z,102981.37
2018-01-13T06:32:31.797Z,102980.08
2018-01-13T06:34:59.531Z,102981.03
2018-01-13T06:37:27.223Z,102986.00
2018-01-13T06:39:55.200Z,102977.98
2018-01-13T06:42:22.900Z,102980.81
2018-01-13T06:44:50.635Z,102982.92
2018-01-13T06:47:18.327Z,102982.62
2018-01-13T06:49:46.020Z,102977.00
2018-01-13T06:52:13.767Z,102982.37
2018-01-13T06:54:41.400Z,102979.11
2018-01-13T06:57:09.129Z,102979.97
2018-01-13T06:59:36.820Z,102976.70
2018-01-13T07:02:04.583Z,102983.66
2018-01-13T07:04:32.226Z,102983.02
2018-01-13T07:06:59.912Z,102985.63
2018-01-13T07:09:27.633Z,102982.70
2018-01-13T07:11:55.394Z,102985.42
2018-01-13T07:14:23.076Z,102981.30
2018-01-13T07:16:50.836Z,102982.77
2018-01-13T07:19:18.592Z,102987.31
2018-01-13T07:21:46.277Z,102993.56
2018-01-13T07:24:13.970Z,102982.77
2018-01-13T07:26:41.726Z,102982.16
2018-01-13T07:29:09.362Z,102981.21
2018-01-13T07:31:37.116Z,102979.50
2018-01-13T07:34:04.844Z,102987.98
2018-01-13T07:36:32.617Z,102999.05
2018-01-13T07:39:00.311Z,102989.84
2018-01-13T07:41:28.055Z,102987.44
2018-01-13T07:43:55.687Z,102989.32
2018-01-13T07:46:23.522Z,102998.50
2018-01-13T07:48:51.233Z,102993.95
2018-01-13T07:51:18.983Z,102994.59
2018-01-13T07:53:46.678Z,102993.86
2018-01-13T07:56:14.427Z,102997.34
2018-01-13T07:58:42.052Z,102998.28
2018-01-13T08:01:09.794Z,102999.66
2018-01-13T08:03:37.450Z,102999.78
2018-01-13T08:06:05.210Z,102999.78
2018-01-13T08:08:32.931Z,103003.47
2018-01-13T08:11:00.687Z,103000.39
2018-01-13T08:13:28.321Z,102998.06
2018-01-13T08:15:56.057Z,102996.70
2018-01-13T08:18:23.800Z,103000.72
2018-01-13T08:20:51.499Z,103003.47
2018-01-13T08:23:19.132Z,103003.89
2018-01-13T08:25:46.831Z,103008.53
2018-01-13T08:28:14.455Z,102997.77
2018-01-13T08:30:42.097Z,103000.60
2018-01-13T08:33:09.776Z,103011.91
2018-01-13T08:35:37.419Z,103007.89
2018-01-13T08:38:05.092Z,103007.28
2018-01-13T08:40:32.726Z,103011.91
2018-01-13T08:43:00.407Z,103011.82
2018-01-13T08:45:28.061Z,103007.48
2018-01-13T08:47:58.385Z,103014.78
2018-01-13T08:50:26.021Z,103020.27
2018-01-13T08:52:53.703Z,103017.61
2018-01-13T08:55:21.350Z,103014.14
2018-01-13T08:57:49.135Z,103024.59
2018-01-13T09:00:16.865Z,103020.27
2018-01-13T09:02:44.590Z,103028.41
2018-01-13T09:05:12.329Z,103019.44
2018-01-13T09:07:40.007Z,103021.67
2018-01-13T09:10:09.995Z,103020.81
2018-01-13T09:12:37.808Z,103020.52
2018-01-13T09:15:05.594Z,103018.11
2018-01-13T09:17:33.433Z,103023.98
2018-01-13T09:20:01.131Z,103023.41
2018-01-13T09:22:28.863Z,103027.41
2018-01-13T09:24:56.551Z,103034.48
2018-01-13T09:27:24.282Z,103028.47
2018-01-13T09:29:51.996Z,103028.05
2018-01-13T09:32:19.722Z,103029.50
2018-01-13T09:34:47.420Z,103038.93
2018-01-13T09:37:15.096Z,103031.34
2018-01-13T09:39:42.780Z,103039.39
2018-01-13T09:42:10.523Z,103035.15
2018-01-13T09:44:38.290Z,103036.52
2018-01-13T09:47:06.017Z,103039.27
2018-01-13T09:49:33.835Z,103031.34
2018-01-13T09:52:01.574Z,103034.51
2018-01-13T09:54:29.268Z,103032.53
2018-01-13T09:56:57.002Z,103035.48
2018-01-13T09:59:24.697Z,103038.44
2018-01-13T10:01:52.465Z,103036.55
2018-01-13T10:04:20.157Z,103035.39
2018-01-13T10:06:47.848Z,103036.16
2018-01-13T10:09:15.522Z,103032.38
2018-01-13T10:11:43.358Z,103031.34
2018-01-13T10:14:11.036Z,103037.64
2018-01-13T10:16:38.684Z,103036.95
2018-01-13T10:19:06.379Z,103042.56
2018-01-13T10:21:34.091Z,103039.05
2018-01-13T10:24:01.770Z,103032.64
2018-01-13T10:26:29.393Z,103028.52
2018-01-13T10:28:57.064Z,103028.95
2018-01-13T10:31:24.744Z,103022.39
2018-01-13T10:33:52.414Z,103021.53
2018-01-13T10:36:20.111Z,103016.50
2018-01-13T10:38:47.819Z,103018.48
2018-01-13T10:41:15.463Z,103018.61
2018-01-13T10:43:43.164Z,103018.09
2018-01-13T10:46:11.736Z,103024.09
2018-01-13T10:48:39.439Z,103019.48
2018-01-13T10:51:07.072Z,103024.05
2018-01-13T10:53:34.817Z,103023.19
2018-01-13T10:56:02.519Z,103022.45
2018-01-13T10:58:30.207Z,103024.33
2018-01-13T11:00:57.841Z,103028.36
2018-01-13T11:03:25.572Z,103024.66
2018-01-13T11:05:53.286Z,103026.67
2018-01-13T11:08:20.980Z,103026.37
2018-01-13T11:10:48.661Z,103024.88
2018-01-13T11:13:16.424Z,103030.80
2018-01-13T11:15:44.122Z,103016.09
2018-01-13T11:18:11.809Z,103018.95
2018-01-13T11:20:39.446Z,103027.13
2018-01-13T11:23:07.163Z,103025.73
2018-01-13T11:25:34.788Z,103022.38
2018-01-13T11:28:02.460Z,103011.57
2018-01-13T11:30:30.090Z,103019.38
2018-01-13T11:32:57.818Z,103018.06
2018-01-13T11:35:25.466Z,103017.82
2018-01-13T11:37:53.147Z,103015.84
2018-01-13T11:40:20.878Z,103015.44
2018-01-13T11:42:48.639Z,103014.70
2018-01-13T11:45:16.323Z,103007.61
2018-01-13T11:47:44.014Z,103003.78
2018-01-13T11:50:11.641Z,103007.08
2018-01-13T11:52:39.273Z,103010.00
2018-01-13T11:55:06.955Z,103005.98
2018-01-13T11:57:34.587Z,102999.14
2018-01-13T12:00:02.310Z,103005.81
2018-01-13T12:02:29.946Z,103006.52
2018-01-13T12:04:57.684Z,103004.02
2018-01-13T12:07:25.311Z,102997.36
2018-01-13T12:09:53.065Z,103009.94
2018-01-13T12:12:20.777Z,103002.83
2018-01-13T12:14:48.456Z,103002.93
2018-01-13T12:17:16.826Z,103002.53
2018-01-13T12:19:44.941Z,102992.98
2018-01-13T12:22:12.722Z,102996.35
2018-01-13T12:24:40.518Z,103000.38
2018-01-13T12:27:08.153Z,103000.17
2018-01-13T12:29:36.314Z,102997.54
2018-01-13T12:32:03.994Z,102996.26
2018-01-13T12:34:31.667Z,102982.71
2018-01-13T12:36:59.360Z,102982.41
2018-01-13T12:39:27.104Z,102977.98
2018-01-13T12:41:54.890Z,102972.37
2018-01-13T12:44:22.636Z,102975.55
2018-01-13T12:46:50.272Z,102971.21
2018-01-13T12:49:19.034Z,102972.52
2018-01-13T12:51:47.650Z,102974.70
2018-01-13T12:54:15.411Z,102971.89
2018-01-13T12:56:43.117Z,102972.84
2018-01-13T12:59:10.828Z,102970.59
2018-01-13T13:01:38.482Z,102971.12
2018-01-13T13:04:06.148Z,102970.03
2018-01-13T13:06:33.785Z,102968.36
2018-01-13T13:09:01.474Z,102962.02
2018-01-13T13:11:29.110Z,102959.58
2018-01-13T13:13:56.791Z,102958.31
2018-01-13T13:16:24.502Z,102959.13
2018-01-13T13:18:52.189Z,102953.42
2018-01-13T13:21:19.908Z,102960.30
2018-01-13T13:23:47.595Z,102956.69
2018-01-13T13:26:15.281Z,102961.02
2018-01-13T13:28:42.962Z,102964.91
2018-01-13T13:31:10.663Z,102953.17
2018-01-13T13:33:38.371Z,102955.67
2018-01-13T13:36:06.112Z,102950.00
2018-01-13T13:38:33.813Z,102961.07
2018-01-13T13:41:01.943Z,102955.28
2018-01-13T13:43:30.707Z,102958.42
2018-01-13T13:46:01.566Z,102958.09
2018-01-13T13:48:33.496Z,102957.55
2018-01-13T13:51:01.657Z,102948.73
2018-01-13T13:53:31.007Z,102956.70
2018-01-13T13:56:01.501Z,102954.75
2018-01-13T13:58:30.280Z,102961.25
2018-01-13T14:01:21.946Z,102964.20
2018-01-13T14:03:30.261Z,102960.79
2018-01-13T14:06:02.172Z,102962.68
2018-01-13T14:08:30.626Z,102961.19
2018-01-13T14:10:58.756Z,102968.77
2018-01-13T14:13:28.199Z,102964.97
2018-01-13T14:15:57.494Z,102972.30
2018-01-13T14:18:25.114Z,102969.13
2018-01-13T14:20:52.895Z,102977.76
2018-01-13T14:23:20.954Z,102975.87
2018-01-13T14:25:50.587Z,102974.38
2018-01-13T14:28:18.324Z,102974.46
2018-01-13T14:30:46.601Z,102972.75
2018-01-13T14:33:15.784Z,102983.51
2018-01-13T14:35:44.472Z,102983.08
2018-01-13T14:38:15.078Z,102982.59
2018-01-13T14:40:43.220Z,102977.98
2018-01-13T14:43:11.924Z,102979.66
2018-01-13T14:45:40.968Z,102979.88
2018-01-13T14:48:08.686Z,102980.39
2018-01-13T14:50:37.683Z,102977.68
2018-01-13T14:53:06.469Z,102976.70
2018-01-13T14:55:34.616Z,102982.70
2018-01-13T14:58:05.025Z,102976.36
2018-01-13T15:00:35.422Z,102972.89
2018-01-13T15:03:03.144Z,102985.19
2018-01-13T15:05:32.795Z,102986.69
2018-01-13T15:08:01.561Z,102984.89
2018-01-13T15:10:33.601Z,102982.44
2018-01-13T15:13:02.289Z,102984.20
2018-01-13T15:15:31.861Z,102984.94
2018-01-13T15:18:01.375Z,102990.11
2018-01-13T15:20:30.423Z,102995.26
2018-01-13T15:23:00.445Z,102991.14
2018-01-13T15:25:28.263Z,102987.89
2018-01-13T15:27:56.905Z,102994.53
2018-01-13T15:30:25.909Z,102995.04
2018-01-13T15:32:57.174Z,102988.48
2018-01-13T15:35:26.905Z,102984.38
2018-01-13T15:37:55.724Z,102987.63
2018-01-13T15:40:25.772Z,102996.49
2018-01-13T15:42:54.180Z,102992.38
2018-01-13T15:45:24.608Z,102997.09
2018-01-13T15:47:53.010Z,102995.81
2018-01-13T15:50:21.988Z,102997.44
2018-01-13T15:52:50.502Z,102983.60
2018-01-13T15:55:24.235Z,102991.40
2018-01-13T15:57:53.032Z,102990.97
2018-01-13T16:00:24.805Z,102987.89
2018-01-13T16:02:53.587Z,102987.47
2018-01-13T16:05:21.509Z,102992.65
2018-01-13T16:07:51.218Z,102996.97
2018-01-13T16:10:19.417Z,102990.20
2018-01-13T16:12:49.898Z,102994.02
2018-01-13T16:15:19.502Z,102997.78
2018-01-13T16:17:48.022Z,102992.30
2018-01-13T16:20:18.080Z,102992.30
2018-01-13T16:22:46.947Z,102986.39
2018-01-13T16:25:15.066Z,102993.11
2018-01-13T16:27:42.799Z,102990.03
2018-01-13T16:30:12.737Z,102988.23
2018-01-13T16:32:41.456Z,102988.87
2018-01-13T16:35:11.080Z,102989.16
2018-01-13T16:37:40.698Z,102983.01
2018-01-13T16:40:09.216Z,102987.23
2018-01-13T16:42:37.864Z,102988.48
2018-01-13T16:45:06.007Z,102988.36
2018-01-13T16:47:34.706Z,102991.52
2018-01-13T16:50:03.263Z,102995.20
2018-01-13T16:52:31.117Z,103001.38
2018-01-13T16:55:01.012Z,103005.51
2018-01-13T16:57:29.726Z,102992.58
2018-01-13T16:59:59.872Z,102998.78
2018-01-13T17:02:27.932Z,103005.20
2018-01-13T17:04:56.425Z,103003.23
2018-01-13T17:07:25.010Z,103007.00
2018-01-13T17:09:54.594Z,103005.06
2018-01-13T17:12:26.634Z,102999.50
2018-01-13T17:14:55.479Z,102992.52
2018-01-13T17:17:24.847Z,102991.75
2018-01-13T17:19:52.699Z,102987.77
2018-01-13T17:22:21.786Z,102984.77
2018-01-13T17:24:49.575Z,102986.14
2018-01-13T17:27:17.484Z,102988.58
2018-01-13T17:29:45.350Z,102981.39
2018-01-13T17:32:13.963Z,102973.59
2018-01-13T17:34:42.198Z,102983.70
2018-01-13T17:37:12.200Z,102980.53
2018-01-13T17:39:40.885Z,102974.10
2018-01-13T17:42:10.847Z,102978.00
2018-01-13T17:44:38.747Z,102968.20
2018-01-13T17:47:06.750Z,102973.02
2018-01-13T17:49:39.481Z,102966.58
2018-01-13T17:52:09.302Z,102963.62
2018-01-13T17:54:37.030Z,102960.02
2018-01-13T17:57:08.144Z,102963.95
2018-01-13T17:59:38.471Z,102956.16
2018-01-13T18:02:08.856Z,102956.38
2018-01-13T18:04:37.631Z,102947.23
2018-01-13T18:07:06.296Z,102948.91
2018-01-13T18:09:35.054Z,102950.39
2018-01-13T18:12:03.689Z,102957.46
2018-01-13T18:14:32.036Z,102957.08
2018-01-13T18:17:01.407Z,102958.45
2018-01-13T18:19:29.266Z,102953.39
2018-01-13T18:21:58.390Z,102952.45
2018-01-13T18:24:30.677Z,102954.34
2018-01-13T18:27:00.163Z,102950.92
2018-01-13T18:29:28.379Z,102943.22
2018-01-13T18:31:57.810Z,102953.37
2018-01-13T18:34:28.150Z,102959.50
2018-01-13T18:36:58.395Z,102963.52
2018-01-13T18:39:27.979Z,102961.20
2018-01-13T18:41:57.459Z,102961.20
2018-01-13T18:44:26.971Z,102957.09
2018-01-13T18:46:55.599Z,102960.78
2018-01-13T18:49:24.525Z,102950.80
2018-01-13T18:51:53.522Z,102944.16
2018-01-13T18:54:23.574Z,102956.20
2018-01-13T18:56:54.583Z,102951.78
2018-01-13T18:59:24.371Z,102950.42
2018-01-13T19:01:52.191Z,102953.88
2018-01-13T19:04:22.749Z,102949.34
2018-01-13T19:06:53.423Z,102949.27
2018-01-13T19:09:21.579Z,102950.42
2018-01-13T19:11:51.107Z,102948.41
2018-01-13T19:14:18.936Z,102946.82
2018-01-13T19:16:47.380Z,102939.16
2018-01-13T19:19:16.657Z,102941.27
2018-01-13T19:21:46.704Z,102956.76
2018-01-13T19:24:15.261Z,102951.91
2018-01-13T19:26:43.333Z,102948.54
2018-01-13T19:29:11.562Z,102950.77
2018-01-13T19:31:41.490Z,102936.55
2018-01-13T19:34:11.935Z,102937.53
2018-01-13T19:36:42.689Z,102924.43
2018-01-13T19:39:13.069Z,102925.72
2018-01-13T19:41:42.197Z,102938.39
2018-01-13T19:44:10.972Z,102937.96
2018-01-13T19:46:39.065Z,102938.42
2018-01-13T19:49:07.755Z,102940.74
2018-01-13T19:51:42.816Z,102934.20
2018-01-13T19:54:13.551Z,102937.58
2018-01-13T19:56:41.985Z,102935.01
2018-01-13T19:59:10.928Z,102934.74
2018-01-13T20:01:41.603Z,102942.84
2018-01-13T20:04:11.340Z,102940.87
2018-01-13T20:06:39.884Z,102935.17
2018-01-13T20:09:10.858Z,102936.12
2018-01-13T20:11:38.512Z,102939.50
2018-01-13T20:14:07.196Z,102938.00
2018-01-13T20:16:36.544Z,102931.92
2018-01-13T20:19:06.153Z,102923.36
2018-01-13T20:21:34.338Z,102921.81
2018-01-13T20:24:03.145Z,102926.14
2018-01-13T20:26:33.000Z,102926.87
2018-01-13T20:29:02.512Z,102926.78
2018-01-13T20:31:30.231Z,102923.95
2018-01-13T20:33:59.978Z,102911.73
2018-01-13T20:36:28.003Z,102911.09
2018-01-13T20:38:58.416Z,102907.50
2018-01-13T20:41:27.247Z,102907.11
2018-01-13T20:43:57.052Z,102908.36
2018-01-13T20:46:27.072Z,102914.91
2018-01-13T20:48:55.202Z,102916.83
2018-01-13T20:51:23.545Z,102917.05
2018-01-13T20:53:52.460Z,102917.08
2018-01-13T20:56:20.680Z,102909.80
2018-01-13T20:58:50.051Z,102916.77
2018-01-13T21:01:20.766Z,102906.02
2018-01-13T21:03:51.089Z,102915.19
2018-01-13T21:06:20.451Z,102907.91
2018-01-13T21:08:48.517Z,102914.16
2018-01-13T21:11:17.313Z,102917.11
2018-01-13T21:13:47.229Z,102915.44
2018-01-13T21:16:15.417Z,102920.50
2018-01-13T21:21:21.266Z,102914.62
2018-01-13T21:23:50.643Z,102912.42
2018-01-13T21:26:20.670Z,102911.70
2018-01-13T21:28:51.252Z,102916.11
2018-01-13T21:31:20.864Z,102907.45
2018-01-13T21:33:49.888Z,102905.88
2018-01-13T21:36:19.421Z,102903.25
2018-01-13T21:38:47.706Z,102897.52
2018-01-13T21:41:16.008Z,102902.38
2018-01-13T21:43:46.220Z,102894.66
2018-01-13T21:46:16.894Z,102892.77
2018-01-13T21:48:47.642Z,102898.68
2018-01-13T21:51:16.195Z,102896.80
2018-01-13T21:53:45.123Z,102895.73
2018-01-13T21:56:16.511Z,102890.67
2018-01-13T21:58:49.125Z,102895.09
2018-01-13T22:01:17.958Z,102895.61
2018-01-13T22:03:46.636Z,102898.05
2018-01-13T22:06:16.282Z,102903.83
2018-01-13T22:08:44.442Z,102914.25
2018-01-13T22:11:13.136Z,102900.02
2018-01-13T22:13:42.463Z,102902.55
2018-01-13T22:16:11.810Z,102899.84
2018-01-13T22:18:41.355Z,102899.84
2018-01-13T22:21:11.764Z,102900.27
2018-01-13T22:23:45.472Z,102899.41
2018-01-13T22:26:14.898Z,102901.21
2018-01-13T22:28:43.351Z,102900.02
2018-01-13T22:31:11.048Z,102909.31
2018-01-13T22:33:39.707Z,102902.00
2018-01-13T22:36:09.596Z,102907.30
2018-01-13T22:38:38.638Z,102905.26
2018-01-13T22:41:12.433Z,102901.36
2018-01-13T22:43:42.234Z,102880.50
2018-01-13T22:46:13.514Z,102902.77
2018-01-13T22:48:41.870Z,102899.26
2018-01-13T22:51:10.499Z,102889.88
2018-01-13T22:53:39.712Z,102890.52
2018-01-13T22:56:09.051Z,102897.49
2018-01-13T23:01:13.114Z,102887.69
2018-01-13T23:03:43.800Z,102890.18
2018-01-13T23:06:12.882Z,102888.81
2018-01-13T23:08:41.699Z,102881.44
2018-01-13T23:11:12.333Z,102868.59
2018-01-13T23:13:40.815Z,102870.98
2018-01-13T23:16:10.247Z,102868.03
2018-01-13T23:18:40.974Z,102860.55
2018-01-13T23:21:10.026Z,102861.16
2018-01-13T23:23:37.841Z,102850.64
2018-01-13T23:26:06.360Z,102866.18
2018-01-13T23:28:40.065Z,102868.92
2018-01-13T23:31:10.237Z,102871.45
2018-01-13T23:33:40.631Z,102867.42
2018-01-13T23:36:12.876Z,102859.41
2018-01-13T23:38:42.484Z,102857.62
2018-01-13T23:41:12.466Z,102852.87
2018-01-13T23:43:40.680Z,102853.17
2018-01-13T23:46:10.872Z,102856.47
2018-01-13T23:48:39.858Z,102850.86
2018-01-13T23:51:10.009Z,102859.59
2018-01-13T23:53:38.653Z,102849.80
2018-01-13T23:56:09.617Z,102850.31
2018-01-13T23:58:39.301Z,102847.88
